YLRE

Details ICAO YLRE (LRE)
Name Longreach
Region Australia
Timezone Australia/Brisbane (UTC+10.0)
Plans Departing 227
Arriving 250
Stats Elevation 626 ft / 191 m (AMSL)
Location -23.432000° 144.278000°
Runways 1
Magnetic Variation 7.425° E
Sunrise 2020-09-25 20:09:45 UTC / 2020-09-26 06:09:45 Local
Sunset 2020-09-26 08:21:19 UTC / 2020-09-26 18:21:19 Local
Advertisement - Login to hide

Runways

ID Width Length Bearing (true/mag) Surface Threshold Overrun Markings Lighting
04 98 ft / 30 m 6,339 ft / 1,932 m 46.50° / 39.08° ASPHALT 0 ft / 0 m 0 ft / 0 m PREC-APP EDGE THRESHOLD
22 98 ft / 30 m 6,339 ft / 1,932 m 226.50° / 219.07° ASPHALT 0 ft / 0 m 0 ft / 0 m PREC-APP EDGE THRESHOLD

Map

Weather


0- 5 10 15 20 25 30 35+ Temperature / °C

Clouds and Precipitation
Forecast for 2020-09-25 18:00 UTC. Updated 4 hours ago

Ground ~20,000 ft ~40,000 ft Winds

METAR

YLRE 251900Z AUTO 19005KT 9999 // NCD 13/04 Q1016

TAF

Not found
Warning: Do not use this data for real-world aviation or navigation. No guarantee of current accuracy is given.